createdAt,value
2023-02-24T00:02:01.430Z,24.39
2023-02-24T00:04:32.031Z,23.85
2023-02-24T00:07:00.252Z,25.13
2023-02-24T00:09:30.268Z,23.09
2023-02-24T00:12:09.024Z,23.63
2023-02-24T00:14:38.809Z,21.92
2023-02-24T00:17:10.056Z,22.47
2023-02-24T00:19:38.023Z,24.62
2023-02-24T00:22:08.038Z,23.03
2023-02-24T00:24:35.766Z,24.43
2023-02-24T00:27:08.132Z,27.39
2023-02-24T00:29:37.932Z,26.81
2023-02-24T00:32:07.785Z,24.45
2023-02-24T00:34:36.699Z,23.95
2023-02-24T00:37:07.098Z,24.02
2023-02-24T00:39:35.059Z,23.39
2023-02-24T00:42:06.588Z,24.47
2023-02-24T00:44:46.591Z,22.89
2023-02-24T00:47:18.632Z,25.56
2023-02-24T00:49:46.171Z,27.43
2023-02-24T00:52:16.823Z,24.86
2023-02-24T00:54:45.405Z,23.67
2023-02-24T00:57:12.675Z,22.71
2023-02-24T00:59:40.495Z,22.55
2023-02-24T01:02:07.677Z,22.46
2023-02-24T01:04:35.198Z,23.51
2023-02-24T01:07:02.018Z,22.65
2023-02-24T01:09:31.195Z,22.55
2023-02-24T01:12:18.149Z,23.00
2023-02-24T01:14:49.706Z,22.58
2023-02-24T01:17:18.631Z,23.15
2023-02-24T01:19:49.116Z,23.85
2023-02-24T01:22:18.955Z,24.30
2023-02-24T01:24:46.532Z,24.10
2023-02-24T01:27:17.463Z,24.79
2023-02-24T01:29:45.472Z,25.73
2023-02-24T01:32:21.343Z,22.50
2023-02-24T01:34:52.303Z,22.05
2023-02-24T01:37:19.762Z,22.77
2023-02-24T01:39:47.913Z,23.62
2023-02-24T01:42:17.136Z,22.79
2023-02-24T01:44:48.067Z,23.64
2023-02-24T01:47:20.813Z,23.39
2023-02-24T01:49:52.841Z,23.32
2023-02-24T01:52:23.942Z,23.63
2023-02-24T01:55:01.383Z,23.28
2023-02-24T01:57:31.442Z,24.55
2023-02-24T02:00:11.183Z,24.33
2023-02-24T02:02:46.547Z,24.79
2023-02-24T02:05:15.329Z,24.64
2023-02-24T02:07:43.539Z,23.87
2023-02-24T02:10:12.425Z,23.37
2023-02-24T02:12:44.791Z,23.92
2023-02-24T02:15:14.521Z,26.11
2023-02-24T02:18:08.008Z,26.99
2023-02-24T02:21:02.564Z,23.56
2023-02-24T02:23:38.029Z,23.64
2023-02-24T02:26:26.713Z,24.52
2023-02-24T02:29:34.305Z,25.62
2023-02-24T02:32:32.574Z,26.33
2023-02-24T02:35:19.022Z,24.04
2023-02-24T02:37:56.714Z,24.44
2023-02-24T02:40:33.403Z,24.13
2023-02-24T02:43:41.886Z,23.74
2023-02-24T02:46:17.699Z,23.40
2023-02-24T02:48:54.711Z,24.42
2023-02-24T02:51:29.114Z,24.51
2023-02-24T02:54:04.899Z,26.11
2023-02-24T02:56:40.714Z,27.51
2023-02-24T02:59:12.816Z,25.11
2023-02-24T03:01:43.916Z,26.13
2023-02-24T03:04:17.178Z,25.72
2023-02-24T03:06:48.684Z,23.68
2023-02-24T03:09:22.738Z,24.66
2023-02-24T03:11:56.254Z,23.88
2023-02-24T03:14:29.001Z,23.94
2023-02-24T03:16:59.148Z,22.65
2023-02-24T03:19:37.356Z,23.17
2023-02-24T03:22:28.336Z,26.09
2023-02-24T03:24:55.680Z,24.44
2023-02-24T03:27:50.610Z,26.86
2023-02-24T03:30:26.730Z,23.38
2023-02-24T03:33:01.295Z,23.09
2023-02-24T03:35:34.412Z,22.99
2023-02-24T03:38:03.133Z,22.66
2023-02-24T03:40:33.791Z,22.65
2023-02-24T03:43:06.222Z,23.08
2023-02-24T03:45:38.068Z,23.17
2023-02-24T03:48:08.219Z,23.48
2023-02-24T03:50:36.096Z,23.17
2023-02-24T03:53:09.351Z,23.28
2023-02-24T03:56:00.498Z,24.31
2023-02-24T03:58:47.591Z,23.92
2023-02-24T04:01:25.664Z,23.76
2023-02-24T04:04:06.099Z,23.23
2023-02-24T04:06:55.810Z,24.10
2023-02-24T04:10:09.455Z,25.88
2023-02-24T04:12:50.483Z,24.76
2023-02-24T04:15:29.721Z,24.06
2023-02-24T04:18:01.690Z,24.95
2023-02-24T04:20:35.864Z,24.98
2023-02-24T04:23:11.332Z,24.14
2023-02-24T04:25:42.575Z,24.01
2023-02-24T04:28:11.347Z,23.71
2023-02-24T04:30:48.444Z,23.20
2023-02-24T04:33:15.971Z,23.71
2023-02-24T04:35:48.415Z,24.87
2023-02-24T04:38:15.193Z,24.73
2023-02-24T04:40:42.619Z,24.12
2023-02-24T04:43:09.716Z,24.17
2023-02-24T04:45:40.400Z,23.90
2023-02-24T04:48:12.729Z,23.04
2023-02-24T04:50:43.070Z,22.52
2023-02-24T04:53:16.111Z,26.43
2023-02-24T04:55:48.862Z,26.78
2023-02-24T04:58:21.278Z,26.98
2023-02-24T05:00:52.827Z,25.49
2023-02-24T05:03:21.150Z,29.02
2023-02-24T05:05:52.000Z,26.75
2023-02-24T05:08:19.940Z,27.48
2023-02-24T05:10:47.918Z,24.42
2023-02-24T05:13:28.169Z,22.56
2023-02-24T05:15:57.540Z,22.64
2023-02-24T05:18:24.973Z,25.36
2023-02-24T05:21:12.765Z,24.36
2023-02-24T05:23:44.392Z,26.13
2023-02-24T05:26:17.664Z,28.15
2023-02-24T05:28:49.209Z,30.58
2023-02-24T05:31:28.295Z,29.33
2023-02-24T05:34:01.503Z,25.79
2023-02-24T05:36:45.943Z,25.08
2023-02-24T05:39:19.173Z,24.75
2023-02-24T05:41:48.698Z,23.78
2023-02-24T05:44:23.341Z,24.51
2023-02-24T05:46:56.784Z,27.11
2023-02-24T05:49:27.457Z,26.64
2023-02-24T05:51:56.255Z,26.64
2023-02-24T05:54:24.446Z,25.52
2023-02-24T05:56:51.477Z,25.59
2023-02-24T05:59:21.453Z,24.19
2023-02-24T06:01:49.707Z,25.62
2023-02-24T06:04:39.393Z,26.13
2023-02-24T06:07:19.239Z,25.24
2023-02-24T06:09:50.231Z,23.65
2023-02-24T06:12:18.794Z,22.74
2023-02-24T06:14:45.921Z,22.95
2023-02-24T06:17:15.164Z,22.40
2023-02-24T06:19:43.521Z,24.41
2023-02-24T06:22:14.537Z,24.10
2023-02-24T06:24:44.489Z,23.18
2023-02-24T06:27:18.080Z,23.80
2023-02-24T06:29:50.390Z,23.84
2023-02-24T06:32:19.097Z,23.51
2023-02-24T06:34:46.964Z,23.48
2023-02-24T06:37:18.372Z,27.12
2023-02-24T06:39:46.011Z,26.35
2023-02-24T06:42:13.756Z,27.22
2023-02-24T06:44:41.633Z,25.84
2023-02-24T06:47:13.525Z,24.49
2023-02-24T06:49:41.648Z,23.56
2023-02-24T06:52:08.784Z,23.77
2023-02-24T06:54:36.193Z,25.54
2023-02-24T06:57:04.231Z,25.30
2023-02-24T06:59:31.212Z,26.68
2023-02-24T07:02:02.341Z,23.39
2023-02-24T07:04:29.858Z,25.48
2023-02-24T07:07:03.767Z,24.99
2023-02-24T07:09:31.548Z,25.21
2023-02-24T07:11:58.978Z,24.32
2023-02-24T07:14:30.632Z,26.90
2023-02-24T07:16:58.545Z,24.36
2023-02-24T07:19:29.232Z,24.38
2023-02-24T07:22:02.437Z,23.82
2023-02-24T07:24:36.719Z,25.68
2023-02-24T07:27:07.916Z,27.03
2023-02-24T07:29:36.319Z,25.32
2023-02-24T07:32:06.242Z,24.73
2023-02-24T07:34:33.923Z,24.88
2023-02-24T07:37:07.894Z,26.91
2023-02-24T07:39:37.115Z,25.70
2023-02-24T07:42:04.867Z,27.66
2023-02-24T07:44:41.063Z,31.33
2023-02-24T07:47:08.410Z,29.47
2023-02-24T07:49:36.240Z,27.91
2023-02-24T07:52:03.684Z,29.93
2023-02-24T07:54:30.608Z,24.63
2023-02-24T07:56:59.708Z,25.75
2023-02-24T07:59:32.889Z,26.82
2023-02-24T08:02:05.150Z,25.51
2023-02-24T08:04:34.052Z,25.68
2023-02-24T08:07:03.892Z,25.88
2023-02-24T08:09:45.039Z,26.33
2023-02-24T08:12:18.196Z,22.40
2023-02-24T08:14:51.161Z,24.08
2023-02-24T08:17:23.507Z,25.64
2023-02-24T08:20:12.746Z,26.03
2023-02-24T08:22:44.045Z,25.71
2023-02-24T08:25:18.526Z,23.00
2023-02-24T08:28:06.778Z,27.93
2023-02-24T08:30:39.678Z,26.59
2023-02-24T08:33:10.640Z,25.16
2023-02-24T08:35:45.273Z,24.38
2023-02-24T08:38:21.077Z,25.04
2023-02-24T08:40:53.720Z,25.62
2023-02-24T08:43:30.106Z,25.91
2023-02-24T08:46:01.023Z,24.62
2023-02-24T08:48:37.613Z,23.38
2023-02-24T08:51:22.772Z,24.28
2023-02-24T08:53:55.150Z,24.39
2023-02-24T08:56:35.129Z,25.39
2023-02-24T08:59:06.141Z,24.65
2023-02-24T09:01:39.011Z,25.91
2023-02-24T09:04:11.256Z,27.12
2023-02-24T09:06:40.546Z,23.13
2023-02-24T09:09:21.378Z,23.58
2023-02-24T09:11:56.565Z,25.21
2023-02-24T09:14:36.505Z,22.10
2023-02-24T09:17:11.513Z,22.87
2023-02-24T09:19:52.248Z,22.64
2023-02-24T09:22:28.555Z,22.85
2023-02-24T09:25:18.145Z,21.58
2023-02-24T09:27:52.520Z,23.06
2023-02-24T09:30:36.046Z,22.84
2023-02-24T09:33:07.214Z,22.54
2023-02-24T09:35:41.833Z,22.83
2023-02-24T09:38:08.682Z,26.73
2023-02-24T09:40:40.266Z,22.00
2023-02-24T09:43:17.939Z,23.32
2023-02-24T09:46:15.170Z,23.04
2023-02-24T09:49:17.344Z,23.24
2023-02-24T09:51:45.109Z,23.39
2023-02-24T09:54:24.807Z,22.78
2023-02-24T09:57:08.415Z,22.71
2023-02-24T10:00:01.534Z,22.48
2023-02-24T10:02:34.315Z,21.83
2023-02-24T10:05:38.482Z,20.87
2023-02-24T10:08:18.116Z,22.61
2023-02-24T10:11:05.272Z,22.35
2023-02-24T10:13:32.941Z,23.13
2023-02-24T10:16:06.711Z,23.48
2023-02-24T10:19:11.787Z,23.16
2023-02-24T10:21:49.555Z,20.37
2023-02-24T10:24:29.912Z,22.31
2023-02-24T10:27:25.771Z,20.48
2023-02-24T10:30:11.350Z,20.09
2023-02-24T10:32:59.116Z,21.09
2023-02-24T10:35:33.835Z,20.79
2023-02-24T10:38:05.623Z,23.21
2023-02-24T10:40:46.798Z,22.41
2023-02-24T10:43:20.420Z,21.00
2023-02-24T10:45:48.169Z,22.07
2023-02-24T10:48:40.696Z,23.95
2023-02-24T10:51:20.410Z,20.74
2023-02-24T10:53:53.287Z,20.60
2023-02-24T10:56:30.694Z,19.78
2023-02-24T10:59:21.724Z,22.03
2023-02-24T11:02:02.981Z,20.04
2023-02-24T11:05:04.258Z,19.86
2023-02-24T11:07:53.485Z,21.71
2023-02-24T11:10:26.923Z,20.08
2023-02-24T11:13:15.363Z,21.83
2023-02-24T11:16:06.216Z,20.58
2023-02-24T11:18:34.001Z,18.83
2023-02-24T11:21:05.113Z,19.95
2023-02-24T11:23:45.410Z,20.60
2023-02-24T11:26:18.211Z,20.49
2023-02-24T11:29:07.233Z,22.75
2023-02-24T11:32:08.993Z,21.27
2023-02-24T11:34:58.210Z,20.22
2023-02-24T11:37:38.114Z,21.88
2023-02-24T11:40:23.166Z,21.89
2023-02-24T11:43:07.401Z,21.31
2023-02-24T11:45:34.296Z,22.79
2023-02-24T11:48:15.146Z,22.21
2023-02-24T11:50:51.110Z,22.37
2023-02-24T11:53:21.324Z,20.56
2023-02-24T11:55:59.233Z,19.74
2023-02-24T11:58:32.234Z,22.58
2023-02-24T12:01:10.166Z,22.20
2023-02-24T12:03:54.488Z,23.93
2023-02-24T12:06:28.966Z,21.59
2023-02-24T12:09:03.409Z,21.83
2023-02-24T12:11:40.757Z,23.38
2023-02-24T12:14:31.288Z,20.42
2023-02-24T12:17:39.977Z,21.42
2023-02-24T12:20:21.789Z,20.78
2023-02-24T12:22:58.298Z,22.65
2023-02-24T12:25:50.455Z,21.22
2023-02-24T12:28:35.041Z,21.30
2023-02-24T12:31:23.896Z,21.21
2023-02-24T12:33:56.877Z,22.23
2023-02-24T12:36:45.407Z,21.31
2023-02-24T12:39:21.882Z,21.58
2023-02-24T12:42:03.665Z,21.85
2023-02-24T12:44:52.041Z,20.90
2023-02-24T12:47:57.286Z,22.12
2023-02-24T12:50:42.047Z,22.52
2023-02-24T12:53:31.803Z,24.19
2023-02-24T12:56:22.016Z,23.18
2023-02-24T12:58:56.289Z,21.73
2023-02-24T13:01:40.948Z,23.45
2023-02-24T13:04:33.122Z,21.80
2023-02-24T13:07:29.967Z,20.00
2023-02-24T13:10:03.199Z,20.51
2023-02-24T13:12:55.780Z,20.25
2023-02-24T13:15:25.634Z,20.32
2023-02-24T13:17:57.698Z,20.23
2023-02-24T13:20:31.982Z,20.21
2023-02-24T13:23:01.252Z,19.90
2023-02-24T13:25:34.289Z,22.00
2023-02-24T13:28:06.251Z,20.02
2023-02-24T13:30:38.778Z,19.54
2023-02-24T13:33:18.042Z,20.47
2023-02-24T13:35:47.172Z,22.30
2023-02-24T13:38:32.405Z,21.28
2023-02-24T13:41:34.823Z,21.73
2023-02-24T13:44:25.057Z,22.87
2023-02-24T13:46:58.445Z,22.34
2023-02-24T13:49:59.141Z,22.25
2023-02-24T13:53:03.523Z,21.57
2023-02-24T13:55:45.293Z,19.84
2023-02-24T13:58:27.771Z,20.73
2023-02-24T14:01:05.122Z,24.69
2023-02-24T14:03:33.709Z,23.03
2023-02-24T14:06:02.431Z,22.08
2023-02-24T14:08:42.756Z,24.23
2023-02-24T14:11:16.079Z,20.51
2023-02-24T14:13:49.708Z,22.77
2023-02-24T14:16:23.904Z,21.67
2023-02-24T14:18:56.536Z,22.97
2023-02-24T14:21:26.989Z,22.66
2023-02-24T14:24:24.198Z,23.33
2023-02-24T14:26:57.153Z,24.10
2023-02-24T14:29:32.438Z,23.42
2023-02-24T14:31:59.982Z,22.87
2023-02-24T14:34:30.421Z,21.22
2023-02-24T14:36:59.246Z,20.95
2023-02-24T14:39:29.486Z,22.48
2023-02-24T14:42:09.150Z,25.26
2023-02-24T14:44:42.503Z,20.91
2023-02-24T14:47:11.674Z,20.79
2023-02-24T14:49:39.336Z,21.29
2023-02-24T14:52:22.319Z,22.33
2023-02-24T14:54:57.482Z,22.29
2023-02-24T14:57:29.279Z,23.06
2023-02-24T15:00:10.788Z,22.38
2023-02-24T15:02:43.848Z,21.76
2023-02-24T15:05:11.960Z,23.94
2023-02-24T15:07:43.395Z,23.02
2023-02-24T15:10:21.490Z,20.87
2023-02-24T15:13:00.714Z,22.83
2023-02-24T15:15:35.747Z,21.00
2023-02-24T15:18:12.500Z,21.00
2023-02-24T15:20:40.946Z,20.43
2023-02-24T15:23:26.597Z,20.74
2023-02-24T15:25:53.448Z,20.90
2023-02-24T15:28:32.373Z,21.67
2023-02-24T15:31:02.062Z,21.77
2023-02-24T15:33:41.999Z,20.86
2023-02-24T15:36:21.366Z,22.15
2023-02-24T15:38:53.541Z,21.80
2023-02-24T15:41:20.558Z,21.97
2023-02-24T15:43:50.186Z,22.66
2023-02-24T15:46:26.195Z,23.96
2023-02-24T15:48:56.006Z,23.07
2023-02-24T15:51:32.330Z,22.29
2023-02-24T15:54:01.390Z,21.54
2023-02-24T15:56:28.784Z,21.12
2023-02-24T15:58:55.569Z,20.85
2023-02-24T16:01:22.378Z,22.90
2023-02-24T16:03:49.812Z,20.75
2023-02-24T16:06:22.069Z,21.62
2023-02-24T16:08:53.041Z,21.37
2023-02-24T16:11:26.975Z,23.01
2023-02-24T16:13:57.863Z,23.57
2023-02-24T16:16:26.632Z,21.10
2023-02-24T16:18:54.401Z,20.48
2023-02-24T16:21:21.270Z,22.10
2023-02-24T16:23:48.806Z,22.55
2023-02-24T16:26:19.148Z,21.98
2023-02-24T16:28:55.485Z,20.73
2023-02-24T16:31:25.474Z,22.97
2023-02-24T16:33:55.852Z,21.34
2023-02-24T16:36:28.185Z,23.72
2023-02-24T16:38:55.780Z,22.55
2023-02-24T16:41:24.260Z,23.32
2023-02-24T16:43:51.416Z,23.95
2023-02-24T16:46:22.824Z,23.28
2023-02-24T16:48:53.596Z,24.12
2023-02-24T16:51:22.495Z,23.11
2023-02-24T16:53:49.289Z,24.24
2023-02-24T16:56:16.249Z,22.70
2023-02-24T16:58:42.999Z,23.09
2023-02-24T17:01:18.395Z,24.17
2023-02-24T17:03:51.155Z,23.96
2023-02-24T17:06:20.816Z,23.08
2023-02-24T17:08:49.781Z,23.32
2023-02-24T17:11:21.794Z,22.72
2023-02-24T17:13:48.664Z,23.16
2023-02-24T17:16:15.404Z,23.58
2023-02-24T17:18:42.144Z,23.40
2023-02-24T17:21:13.382Z,24.56
2023-02-24T17:23:42.505Z,24.43
2023-02-24T17:26:13.781Z,24.10
2023-02-24T17:28:41.060Z,24.67
2023-02-24T17:31:08.031Z,26.29
2023-02-24T17:33:35.120Z,25.73
2023-02-24T17:36:01.845Z,25.95
2023-02-24T17:38:28.742Z,25.34
2023-02-24T17:40:57.581Z,24.60
2023-02-24T17:43:25.008Z,27.75
2023-02-24T17:45:53.306Z,30.33
2023-02-24T17:48:20.846Z,26.85
2023-02-24T17:50:48.620Z,30.04
2023-02-24T17:53:15.834Z,30.86
2023-02-24T17:56:01.119Z,29.16
2023-02-24T17:58:29.061Z,26.44
2023-02-24T18:00:56.380Z,28.52
2023-02-24T18:03:23.503Z,26.12
2023-02-24T18:06:04.179Z,24.58
2023-02-24T18:08:33.987Z,27.34
2023-02-24T18:11:01.395Z,27.85
2023-02-24T18:13:29.560Z,30.30
2023-02-24T18:15:56.998Z,29.22
2023-02-24T18:18:25.315Z,30.84
2023-02-24T18:20:52.137Z,30.41
2023-02-24T18:23:18.992Z,30.95
2023-02-24T18:25:45.714Z,31.54
2023-02-24T18:28:12.474Z,29.20
2023-02-24T18:30:40.697Z,29.69
2023-02-24T18:33:07.615Z,31.29
2023-02-24T18:35:34.507Z,29.76
2023-02-24T18:38:02.798Z,28.79
2023-02-24T18:40:29.925Z,32.89
2023-02-24T18:42:57.148Z,30.06
2023-02-24T18:45:24.750Z,32.27
2023-02-24T18:47:52.400Z,29.22
2023-02-24T18:50:19.291Z,29.37
2023-02-24T18:52:46.118Z,32.73
2023-02-24T18:55:12.832Z,27.92
2023-02-24T18:57:41.047Z,30.88
2023-02-24T19:00:12.609Z,30.65
2023-02-24T19:02:41.075Z,31.16
2023-02-24T19:05:08.658Z,30.56
2023-02-24T19:07:35.819Z,28.16
2023-02-24T19:10:02.614Z,32.17
2023-02-24T19:12:29.339Z,31.21
2023-02-24T19:14:56.416Z,29.47
2023-02-24T19:17:24.124Z,34.26
2023-02-24T19:19:50.957Z,31.60
2023-02-24T19:22:17.686Z,30.03
2023-02-24T19:24:44.553Z,29.44
2023-02-24T19:27:11.509Z,29.29
2023-02-24T19:29:38.352Z,32.08
2023-02-24T19:32:05.411Z,32.72
2023-02-24T19:34:32.329Z,31.40
2023-02-24T19:36:59.124Z,32.12
2023-02-24T19:39:26.504Z,31.45
2023-02-24T19:41:53.488Z,31.22
2023-02-24T19:44:20.321Z,30.41
2023-02-24T19:46:47.171Z,29.53
2023-02-24T19:49:14.008Z,32.41
2023-02-24T19:51:41.776Z,33.15
2023-02-24T19:54:13.200Z,30.97
2023-02-24T19:56:40.699Z,30.21
2023-02-24T19:59:08.785Z,26.97
2023-02-24T20:01:35.719Z,30.27
2023-02-24T20:04:03.650Z,30.28
2023-02-24T20:06:33.585Z,30.38
2023-02-24T20:09:00.840Z,31.65
2023-02-24T20:11:33.269Z,29.13
2023-02-24T20:14:00.010Z,31.62
2023-02-24T20:16:32.014Z,29.57
2023-02-24T20:18:58.749Z,31.17
2023-02-24T20:21:25.933Z,29.61
2023-02-24T20:23:53.348Z,28.61
2023-02-24T20:26:21.783Z,30.92
2023-02-24T20:28:49.038Z,31.23
2023-02-24T20:31:21.111Z,30.75
2023-02-24T20:33:49.600Z,28.84
2023-02-24T20:36:18.548Z,30.04
2023-02-24T20:38:45.405Z,31.06
2023-02-24T20:41:13.119Z,28.47
2023-02-24T20:43:40.065Z,31.51
2023-02-24T20:46:15.485Z,30.24
2023-02-24T20:48:43.310Z,30.41
2023-02-24T20:51:12.672Z,29.20
2023-02-24T20:53:54.650Z,33.77
2023-02-24T20:56:25.013Z,29.04
2023-02-24T20:58:54.140Z,30.50
2023-02-24T21:01:21.194Z,30.22
2023-02-24T21:03:48.239Z,32.60
2023-02-24T21:06:17.171Z,28.95
2023-02-24T21:08:44.525Z,29.16
2023-02-24T21:11:13.545Z,31.93
2023-02-24T21:13:44.732Z,27.82
2023-02-24T21:16:14.040Z,25.23
2023-02-24T21:18:42.787Z,26.31
2023-02-24T21:21:10.621Z,25.37
2023-02-24T21:23:39.612Z,27.45
2023-02-24T21:26:07.730Z,26.67
2023-02-24T21:28:35.546Z,26.45
2023-02-24T21:31:08.973Z,27.01
2023-02-24T21:33:36.116Z,29.37
2023-02-24T21:36:06.761Z,27.11
2023-02-24T21:38:34.477Z,30.93
2023-02-24T21:41:03.360Z,30.88
2023-02-24T21:43:30.632Z,29.31
2023-02-24T21:46:01.418Z,26.93
2023-02-24T21:48:28.638Z,29.18
2023-02-24T21:51:24.757Z,28.92
2023-02-24T21:53:55.049Z,26.54
2023-02-24T21:56:27.575Z,30.99
2023-02-24T21:58:58.812Z,29.32
2023-02-24T22:01:37.619Z,31.42
2023-02-24T22:04:08.108Z,29.11
2023-02-24T22:06:37.124Z,28.14
2023-02-24T22:09:05.989Z,31.32
2023-02-24T22:11:37.822Z,29.51
2023-02-24T22:14:09.870Z,29.36
2023-02-24T22:16:37.549Z,30.73
2023-02-24T22:19:04.877Z,31.98
2023-02-24T22:21:32.362Z,31.90
2023-02-24T22:24:02.182Z,32.58
2023-02-24T22:26:30.879Z,31.19
2023-02-24T22:28:59.314Z,30.90
2023-02-24T22:31:29.912Z,31.13
2023-02-24T22:33:57.408Z,33.27
2023-02-24T22:36:28.017Z,31.87
2023-02-24T22:38:56.615Z,31.51
2023-02-24T22:41:27.286Z,31.11
2023-02-24T22:43:54.406Z,31.52
2023-02-24T22:46:28.276Z,29.50
2023-02-24T22:48:56.341Z,31.21
2023-02-24T22:51:24.383Z,29.27
2023-02-24T22:53:51.874Z,31.64
2023-02-24T22:56:22.264Z,32.23
2023-02-24T22:58:50.108Z,31.88
2023-02-24T23:01:19.739Z,32.11
2023-02-24T23:03:46.632Z,31.21
2023-02-24T23:06:15.968Z,30.34
2023-02-24T23:08:45.894Z,31.26
2023-02-24T23:11:18.356Z,31.13
2023-02-24T23:13:47.842Z,31.10
2023-02-24T23:16:18.666Z,29.17
2023-02-24T23:18:50.760Z,31.72
2023-02-24T23:21:27.643Z,31.13
2023-02-24T23:23:58.652Z,31.23
2023-02-24T23:26:30.385Z,35.06
2023-02-24T23:28:57.149Z,31.09
2023-02-24T23:31:24.508Z,29.46
2023-02-24T23:33:52.305Z,32.42
2023-02-24T23:36:19.082Z,32.04
2023-02-24T23:38:45.871Z,31.00
2023-02-24T23:41:13.677Z,33.60
2023-02-24T23:43:40.853Z,31.24
2023-02-24T23:46:10.480Z,29.14
2023-02-24T23:48:38.577Z,30.08
2023-02-24T23:51:10.945Z,30.32
2023-02-24T23:53:39.059Z,29.76
2023-02-24T23:56:11.295Z,29.20
2023-02-24T23:58:37.983Z,28.13
